Terminal Aerodrome Forecast
Issued by NWS Bismarck, ND

Home | Current Version | Previous Version | Text Only | Print | Product List | Glossary On
Versions: 1 2 3 4 5 6 7 8 9 10 11 12 13 14 15 16 17 18 19 20 21 22
399
FTUS43 KBIS 302328
TAFISN
TAF
KISN 302328Z 3100/3124 11008KT P6SM SCT200
     FM310200 10007KT P6SM BKN110
     FM310600 11005KT P6SM VCSH BKN060
     FM310900 08004KT 6SM -SHRA BKN040
     FM311500 07006KT 3SM -RA BR OVC015
     FM311800 07007KT 2SM BR OVC015=

USA.gov is the U.S. government's official web portal to all federal, state and local government web resources and services.